createdAt,value
2022-12-05T00:02:44.910Z,18.58
2022-12-05T00:05:50.145Z,21.90
2022-12-05T00:08:55.280Z,20.45
2022-12-05T00:12:00.103Z,23.92
2022-12-05T00:15:05.326Z,23.50
2022-12-05T00:18:09.549Z,23.77
2022-12-05T00:21:24.640Z,22.38
2022-12-05T00:24:29.487Z,22.02
2022-12-05T00:27:34.878Z,20.92
2022-12-05T00:30:40.936Z,20.27
2022-12-05T00:33:46.165Z,19.55
2022-12-05T00:36:50.501Z,24.00
2022-12-05T00:39:55.503Z,18.98
2022-12-05T00:43:00.124Z,18.17
2022-12-05T00:46:17.042Z,19.17
2022-12-05T00:49:21.953Z,16.95
2022-12-05T00:52:27.141Z,20.58
2022-12-05T00:55:31.569Z,25.05
2022-12-05T00:58:36.735Z,24.10
2022-12-05T01:01:43.315Z,22.95
2022-12-05T01:04:48.284Z,18.15
2022-12-05T01:07:52.716Z,16.40
2022-12-05T01:10:58.460Z,18.17
2022-12-05T01:14:04.318Z,13.48
2022-12-05T01:17:09.946Z,19.73
2022-12-05T01:20:14.516Z,18.52
2022-12-05T01:23:19.531Z,18.38
2022-12-05T01:26:24.838Z,21.63
2022-12-05T01:29:29.347Z,21.05
2022-12-05T01:32:33.875Z,20.42
2022-12-05T01:35:40.866Z,21.55
2022-12-05T01:38:45.738Z,22.98
2022-12-05T01:41:51.088Z,15.13
2022-12-05T01:45:08.696Z,16.20
2022-12-05T01:48:26.855Z,14.82
2022-12-05T01:51:33.689Z,19.65
2022-12-05T01:54:38.868Z,17.23
2022-12-05T01:57:46.410Z,16.65
2022-12-05T02:00:51.102Z,17.88
2022-12-05T02:03:58.005Z,17.48
2022-12-05T02:07:09.224Z,17.65
2022-12-05T02:10:21.829Z,17.02
2022-12-05T02:14:03.746Z,19.98
2022-12-05T02:17:29.704Z,15.85
2022-12-05T02:20:57.880Z,16.23
2022-12-05T02:24:39.545Z,18.13
2022-12-05T02:28:11.177Z,13.25
2022-12-05T02:31:29.874Z,15.52
2022-12-05T02:34:59.826Z,15.27
2022-12-05T02:38:19.576Z,15.65
2022-12-05T02:41:34.013Z,17.85
2022-12-05T02:51:01.827Z,14.82
2022-12-05T02:54:12.602Z,18.98
2022-12-05T02:57:18.073Z,18.40
2022-12-05T03:00:22.763Z,17.13
2022-12-05T03:03:27.567Z,18.30
2022-12-05T03:06:49.303Z,14.38
2022-12-05T03:10:02.394Z,13.30
2022-12-05T03:13:16.228Z,16.25
2022-12-05T03:16:37.397Z,15.93
2022-12-05T03:20:01.357Z,14.20
2022-12-05T03:23:25.295Z,16.23
2022-12-05T03:27:20.400Z,12.60
2022-12-05T03:30:25.583Z,12.07
2022-12-05T03:33:37.207Z,11.65
2022-12-05T03:36:48.673Z,12.70
2022-12-05T03:40:07.576Z,16.40
2022-12-05T03:43:38.258Z,15.98
2022-12-05T03:46:55.187Z,13.23
2022-12-05T03:50:10.528Z,19.40
2022-12-05T03:53:25.980Z,13.52
2022-12-05T03:56:44.496Z,12.73
2022-12-05T04:00:11.571Z,15.05
2022-12-05T04:03:39.028Z,12.15
2022-12-05T04:06:49.641Z,17.27
2022-12-05T04:09:59.785Z,15.07
2022-12-05T04:13:17.943Z,17.73
2022-12-05T04:16:55.311Z,13.27
2022-12-05T04:20:30.901Z,17.05
2022-12-05T04:23:35.863Z,11.60
2022-12-05T04:26:48.309Z,10.77
2022-12-05T04:29:52.675Z,11.60
2022-12-05T04:33:15.099Z,12.40
2022-12-05T04:36:30.126Z,15.25
2022-12-05T04:39:55.867Z,12.48
2022-12-05T04:43:04.226Z,14.60
2022-12-05T04:46:13.514Z,14.05
2022-12-05T04:49:23.680Z,14.38
2022-12-05T04:52:30.005Z,15.68
2022-12-05T04:55:39.467Z,15.93
2022-12-05T04:58:44.284Z,13.95
2022-12-05T05:01:55.878Z,12.77
2022-12-05T05:05:02.458Z,13.57
2022-12-05T05:08:22.295Z,13.30
2022-12-05T05:11:33.716Z,12.32
2022-12-05T05:14:38.459Z,10.90
2022-12-05T05:17:42.777Z,10.65
2022-12-05T05:20:47.222Z,13.27
2022-12-05T05:23:52.778Z,10.13
2022-12-05T05:26:57.719Z,11.10
2022-12-05T05:30:02.503Z,10.63
2022-12-05T05:33:07.465Z,11.85
2022-12-05T05:36:14.155Z,14.68
2022-12-05T05:39:19.081Z,15.32
2022-12-05T05:42:23.389Z,13.40
2022-12-05T05:45:28.030Z,12.63
2022-12-05T05:48:32.411Z,16.63
2022-12-05T05:51:36.790Z,14.95
2022-12-05T05:54:41.433Z,12.57
2022-12-05T05:57:46.008Z,15.82
2022-12-05T06:00:50.826Z,12.43
2022-12-05T06:03:55.430Z,15.15
2022-12-05T06:06:59.972Z,11.68
2022-12-05T06:10:05.409Z,10.93
2022-12-05T06:13:09.717Z,12.43
2022-12-05T06:16:17.495Z,12.00
2022-12-05T06:19:22.538Z,13.80
2022-12-05T06:22:26.880Z,11.98
2022-12-05T06:25:31.714Z,10.13
2022-12-05T06:28:37.647Z,14.68
2022-12-05T06:31:42.781Z,13.93
2022-12-05T06:34:47.175Z,14.73
2022-12-05T06:37:51.639Z,12.45
2022-12-05T06:40:56.120Z,14.25
2022-12-05T06:44:02.459Z,10.15
2022-12-05T06:47:07.385Z,13.50
2022-12-05T06:50:11.794Z,13.73
2022-12-05T06:53:16.548Z,11.43
2022-12-05T06:56:21.047Z,14.25
2022-12-05T06:59:25.703Z,14.95
2022-12-05T07:02:30.237Z,12.05
2022-12-05T07:05:34.758Z,11.93
2022-12-05T07:08:39.608Z,10.43
2022-12-05T07:11:50.567Z,11.43
2022-12-05T07:14:55.367Z,13.55
2022-12-05T07:18:00.177Z,12.82
2022-12-05T07:21:12.091Z,11.10
2022-12-05T07:24:17.203Z,12.57
2022-12-05T07:27:26.933Z,10.30
2022-12-05T07:30:32.880Z,10.82
2022-12-05T07:33:38.668Z,10.02
2022-12-05T07:36:43.171Z,9.63
2022-12-05T07:39:47.520Z,10.00
2022-12-05T07:42:53.489Z,8.43
2022-12-05T07:46:06.950Z,9.35
2022-12-05T07:49:11.767Z,10.77
2022-12-05T07:52:16.538Z,10.40
2022-12-05T07:55:20.851Z,10.57
2022-12-05T07:58:25.715Z,10.63
2022-12-05T08:01:31.090Z,12.27
2022-12-05T08:04:35.699Z,11.02
2022-12-05T08:07:40.459Z,8.25
2022-12-05T08:10:44.990Z,10.60
2022-12-05T08:13:50.845Z,9.45
2022-12-05T08:16:55.843Z,10.27
2022-12-05T08:20:00.906Z,7.72
2022-12-05T08:23:05.832Z,8.93
2022-12-05T08:26:38.079Z,8.85
2022-12-05T08:29:45.506Z,9.15
2022-12-05T08:32:50.010Z,7.82
2022-12-05T08:35:54.624Z,8.68
2022-12-05T08:39:03.741Z,10.63
2022-12-05T08:42:08.353Z,10.50
2022-12-05T08:45:13.009Z,10.57
2022-12-05T08:48:17.361Z,11.73
2022-12-05T08:51:21.822Z,10.43
2022-12-05T08:54:26.375Z,8.75
2022-12-05T08:57:31.040Z,9.27
2022-12-05T09:00:36.291Z,9.10
2022-12-05T09:03:47.560Z,10.05
2022-12-05T09:06:52.512Z,9.20
2022-12-05T09:09:56.985Z,8.23
2022-12-05T09:13:01.488Z,11.75
2022-12-05T09:16:15.056Z,10.73
2022-12-05T09:19:25.758Z,10.48
2022-12-05T09:22:30.295Z,9.30
2022-12-05T09:25:35.201Z,7.88
2022-12-05T09:28:40.615Z,8.52
2022-12-05T09:31:48.024Z,5.53
2022-12-05T09:34:52.225Z,8.05
2022-12-05T09:37:57.174Z,8.05
2022-12-05T09:41:48.677Z,7.55
2022-12-05T09:45:15.319Z,6.10
2022-12-05T09:48:22.602Z,7.20
2022-12-05T09:51:27.828Z,6.65
2022-12-05T09:54:33.008Z,8.00
2022-12-05T09:57:47.369Z,7.35
2022-12-05T10:01:00.535Z,6.63
2022-12-05T10:04:25.330Z,7.13
2022-12-05T10:08:08.755Z,6.57
2022-12-05T10:11:37.478Z,6.35
2022-12-05T10:15:12.148Z,6.43
2022-12-05T10:18:34.410Z,6.13
2022-12-05T10:21:58.814Z,6.85
2022-12-05T10:25:06.670Z,5.10
2022-12-05T10:28:45.864Z,5.97
2022-12-05T10:31:54.916Z,5.78
2022-12-05T10:35:20.911Z,7.93
2022-12-05T10:38:31.312Z,6.43
2022-12-05T10:41:36.170Z,6.63
2022-12-05T10:44:40.862Z,6.47
2022-12-05T10:47:45.857Z,6.68
2022-12-05T10:50:57.255Z,7.32
2022-12-05T10:54:02.740Z,6.50
2022-12-05T10:57:30.228Z,5.95
2022-12-05T11:00:34.670Z,7.53
2022-12-05T11:03:41.054Z,6.20
2022-12-05T11:07:02.289Z,5.63
2022-12-05T11:10:26.659Z,5.13
2022-12-05T11:13:33.846Z,5.30
2022-12-05T11:16:39.657Z,4.97
2022-12-05T11:19:44.557Z,5.72
2022-12-05T11:22:56.420Z,5.40
2022-12-05T11:26:01.205Z,4.82
2022-12-05T11:29:29.940Z,5.25
2022-12-05T11:32:34.749Z,5.13
2022-12-05T11:35:39.992Z,4.70
2022-12-05T11:38:44.706Z,5.20
2022-12-05T11:42:27.860Z,4.95
2022-12-05T11:46:09.228Z,4.55
2022-12-05T11:49:26.111Z,4.20
2022-12-05T11:52:57.987Z,3.90
2022-12-05T11:56:18.952Z,4.50
2022-12-05T12:00:04.089Z,3.67
2022-12-05T12:03:37.588Z,4.10
2022-12-05T12:06:57.826Z,3.55
2022-12-05T12:10:17.403Z,3.72
2022-12-05T12:14:01.579Z,3.85
2022-12-05T12:17:16.506Z,3.50
2022-12-05T12:20:42.701Z,3.25
2022-12-05T12:24:11.344Z,3.63
2022-12-05T12:27:48.603Z,3.33
2022-12-05T12:31:31.825Z,3.40
2022-12-05T12:35:07.971Z,3.15
2022-12-05T12:38:32.069Z,3.40
2022-12-05T12:42:14.644Z,3.40
2022-12-05T12:46:06.634Z,2.97
2022-12-05T12:50:05.691Z,2.97
2022-12-05T12:53:25.605Z,2.88
2022-12-05T12:57:24.019Z,2.95
2022-12-05T13:01:07.302Z,2.78
2022-12-05T13:04:24.761Z,2.63
2022-12-05T13:07:44.080Z,3.15
2022-12-05T13:10:49.864Z,3.13
2022-12-05T13:13:59.369Z,3.42
2022-12-05T13:17:06.686Z,3.45
2022-12-05T13:20:18.782Z,3.13
2022-12-05T13:23:28.378Z,3.20
2022-12-05T13:26:37.024Z,2.83
2022-12-05T13:29:55.535Z,2.88
2022-12-05T13:33:09.027Z,3.35
2022-12-05T13:36:41.056Z,3.20
2022-12-05T13:40:13.432Z,3.45
2022-12-05T13:43:23.031Z,3.30
2022-12-05T13:46:33.244Z,2.88
2022-12-05T13:49:49.845Z,2.05
2022-12-05T13:52:59.124Z,1.83
2022-12-05T13:56:45.684Z,1.98
2022-12-05T14:00:10.231Z,1.73
2022-12-05T14:03:58.504Z,1.50
2022-12-05T14:07:03.014Z,1.75
2022-12-05T14:10:11.267Z,1.73
2022-12-05T14:13:15.983Z,1.42
2022-12-05T14:16:26.826Z,1.50
2022-12-05T14:19:48.649Z,1.40
2022-12-05T14:23:33.690Z,1.60
2022-12-05T14:27:35.809Z,1.30
2022-12-05T14:31:02.598Z,1.15
2022-12-05T14:34:25.193Z,1.42
2022-12-05T14:37:37.863Z,1.70
2022-12-05T14:40:44.520Z,1.48
2022-12-05T14:43:55.482Z,1.10
2022-12-05T14:47:03.314Z,1.38
2022-12-05T14:50:42.071Z,1.17
2022-12-05T14:53:48.752Z,1.30
2022-12-05T14:57:08.746Z,1.10
2022-12-05T15:00:22.712Z,1.30
2022-12-05T15:03:36.361Z,1.05
2022-12-05T15:06:59.558Z,1.27
2022-12-05T15:10:38.136Z,1.15
2022-12-05T15:13:43.454Z,1.30
2022-12-05T15:16:51.883Z,1.13
2022-12-05T15:20:05.592Z,0.90
2022-12-05T15:23:41.604Z,1.70
2022-12-05T15:26:56.775Z,1.40
2022-12-05T15:30:01.499Z,1.33
2022-12-05T15:33:13.580Z,1.30
2022-12-05T15:36:21.687Z,1.33
2022-12-05T15:39:28.471Z,1.20
2022-12-05T15:42:49.423Z,1.05
2022-12-05T15:46:24.531Z,1.10
2022-12-05T15:49:29.938Z,1.02
2022-12-05T15:52:47.016Z,1.35
2022-12-05T15:56:04.613Z,1.60
2022-12-05T15:59:25.004Z,1.50
2022-12-05T16:02:44.433Z,1.38
2022-12-05T16:06:01.637Z,1.30
2022-12-05T16:09:31.038Z,1.00
2022-12-05T16:12:41.031Z,1.42
2022-12-05T16:15:52.823Z,1.30
2022-12-05T16:19:04.349Z,1.30
2022-12-05T16:22:12.111Z,1.08
2022-12-05T16:25:26.072Z,1.52
2022-12-05T16:28:33.665Z,1.63
2022-12-05T16:31:39.992Z,1.25
2022-12-05T16:34:45.582Z,1.17
2022-12-05T16:37:50.985Z,1.30
2022-12-05T16:41:06.037Z,1.20
2022-12-05T16:44:29.203Z,1.08
2022-12-05T16:47:59.142Z,1.30
2022-12-05T16:51:28.504Z,1.55
2022-12-05T16:54:33.630Z,1.40
2022-12-05T16:57:38.447Z,1.20
2022-12-05T17:00:43.109Z,1.50
2022-12-05T17:03:48.605Z,1.20
2022-12-05T17:06:53.161Z,1.40
2022-12-05T17:09:58.058Z,1.33
2022-12-05T17:13:03.162Z,1.38
2022-12-05T17:16:07.903Z,1.40
2022-12-05T17:19:13.175Z,1.38
2022-12-05T17:22:17.804Z,1.38
2022-12-05T17:25:36.437Z,1.20
2022-12-05T17:28:41.338Z,1.30
2022-12-05T17:31:46.167Z,1.05
2022-12-05T17:34:50.929Z,1.48
2022-12-05T17:37:55.568Z,1.30
2022-12-05T17:41:03.884Z,1.42
2022-12-05T17:44:14.744Z,1.40
2022-12-05T17:47:19.599Z,1.35
2022-12-05T17:50:26.009Z,1.80
2022-12-05T17:53:30.827Z,1.75
2022-12-05T17:56:36.071Z,1.70
2022-12-05T17:59:40.638Z,1.35
2022-12-05T18:02:46.216Z,1.40
2022-12-05T18:05:51.151Z,1.70
2022-12-05T18:08:55.990Z,1.42
2022-12-05T18:12:00.864Z,1.50
2022-12-05T18:15:06.723Z,1.55
2022-12-05T18:18:16.826Z,1.50
2022-12-05T18:21:21.759Z,1.35
2022-12-05T18:24:26.271Z,1.33
2022-12-05T18:27:31.477Z,1.60
2022-12-05T18:30:35.897Z,1.80
2022-12-05T18:33:41.099Z,1.63
2022-12-05T18:36:45.646Z,1.88
2022-12-05T18:39:50.328Z,1.90
2022-12-05T18:42:54.836Z,1.42
2022-12-05T18:46:03.087Z,1.98
2022-12-05T18:49:07.994Z,1.85
2022-12-05T18:52:12.850Z,2.00
2022-12-05T18:55:19.744Z,2.00
2022-12-05T18:58:28.134Z,2.20
2022-12-05T19:01:36.377Z,2.25
2022-12-05T19:04:41.169Z,1.70
2022-12-05T19:07:46.549Z,2.38
2022-12-05T19:10:51.084Z,2.05
2022-12-05T19:14:01.202Z,2.33
2022-12-05T19:17:06.110Z,1.95
2022-12-05T19:20:11.808Z,2.45
2022-12-05T19:23:17.508Z,1.60
2022-12-05T19:26:23.365Z,2.30
2022-12-05T19:29:27.960Z,2.28
2022-12-05T19:32:35.499Z,1.90
2022-12-05T19:35:44.399Z,1.60
2022-12-05T19:38:51.807Z,1.98
2022-12-05T19:42:00.210Z,2.05
2022-12-05T19:45:09.507Z,1.70
2022-12-05T19:48:15.823Z,1.55
2022-12-05T19:51:21.184Z,1.90
2022-12-05T19:54:27.145Z,1.75
2022-12-05T19:57:31.968Z,2.40
2022-12-05T20:00:36.202Z,2.10
2022-12-05T20:03:42.666Z,2.70
2022-12-05T20:06:49.933Z,2.30
2022-12-05T20:09:54.325Z,1.75
2022-12-05T20:13:00.568Z,2.03
2022-12-05T20:16:11.954Z,1.92
2022-12-05T20:19:17.225Z,2.15
2022-12-05T20:22:22.032Z,2.03
2022-12-05T20:25:26.931Z,1.60
2022-12-05T20:28:32.020Z,1.92
2022-12-05T20:31:42.229Z,1.98
2022-12-05T20:34:46.752Z,2.00
2022-12-05T20:37:51.070Z,1.42
2022-12-05T20:41:06.061Z,2.00
2022-12-05T20:44:15.233Z,2.45
2022-12-05T20:47:20.049Z,2.25
2022-12-05T20:50:24.921Z,2.30
2022-12-05T20:53:32.337Z,1.90
2022-12-05T20:56:36.927Z,2.25
2022-12-05T20:59:41.838Z,1.77
2022-12-05T21:02:46.535Z,2.08
2022-12-05T21:05:51.424Z,1.98
2022-12-05T21:08:57.316Z,2.05
2022-12-05T21:12:02.513Z,1.75
2022-12-05T21:15:07.980Z,2.20
2022-12-05T21:18:12.937Z,2.72
2022-12-05T21:21:27.376Z,3.20
2022-12-05T21:24:33.657Z,2.15
2022-12-05T21:27:38.302Z,2.50
2022-12-05T21:30:42.518Z,2.08
2022-12-05T21:33:50.595Z,2.60
2022-12-05T21:36:55.019Z,2.13
2022-12-05T21:40:00.009Z,2.20
2022-12-05T21:43:05.243Z,2.00
2022-12-05T21:46:10.291Z,2.05
2022-12-05T21:49:14.983Z,2.17
2022-12-05T21:52:20.865Z,1.73
2022-12-05T21:55:25.547Z,1.80
2022-12-05T21:58:30.458Z,2.38
2022-12-05T22:01:35.117Z,2.40
2022-12-05T22:04:40.616Z,2.03
2022-12-05T22:07:45.652Z,1.88
2022-12-05T22:10:51.535Z,2.00
2022-12-05T22:13:56.158Z,1.80
2022-12-05T22:17:00.785Z,2.10
2022-12-05T22:20:06.524Z,2.08
2022-12-05T22:23:16.590Z,1.85
2022-12-05T22:26:24.895Z,2.10
2022-12-05T22:29:29.511Z,1.90
2022-12-05T22:32:34.021Z,1.77
2022-12-05T22:35:38.664Z,1.95
2022-12-05T22:38:47.028Z,1.92
2022-12-05T22:41:51.823Z,1.90
2022-12-05T22:44:56.495Z,1.90
2022-12-05T22:48:01.281Z,1.90
2022-12-05T22:51:07.858Z,2.30
2022-12-05T22:54:12.499Z,1.95
2022-12-05T22:57:17.083Z,2.28
2022-12-05T23:00:22.224Z,2.03
2022-12-05T23:03:27.321Z,2.13
2022-12-05T23:06:33.989Z,2.28
2022-12-05T23:09:38.507Z,1.90
2022-12-05T23:12:42.907Z,2.25
2022-12-05T23:15:47.857Z,2.17
2022-12-05T23:18:56.872Z,2.25
2022-12-05T23:22:02.928Z,2.17
2022-12-05T23:25:08.175Z,1.85
2022-12-05T23:28:13.097Z,1.73
2022-12-05T23:31:18.983Z,1.67
2022-12-05T23:34:23.734Z,2.15
2022-12-05T23:37:28.609Z,2.13
2022-12-05T23:40:33.386Z,2.30
2022-12-05T23:43:38.955Z,2.30
2022-12-05T23:46:44.015Z,2.13
2022-12-05T23:49:48.810Z,2.30
2022-12-05T23:52:53.390Z,2.30
2022-12-05T23:56:11.441Z,1.88
2022-12-05T23:59:16.214Z,1.65
